Time;durP1;ratioP1;P1;durP2;ratioP2;P2;SDS_P1;SDS_P2;PMS_P1;PMS_P2;Temp;Humidity;BMP_temperature;BMP_pressure;BME280_temperature;BME280_humidity;BME280_pressure;Samples;Min_cycle;Max_cycle;Signal;HPM_P1;HPM_P2
2022/08/10 00:01:33;;;;;;;1.48;0.80;;;19.70;58.00;;;;;;9182012;19;20026;-66
2022/08/10 00:04:41;;;;;;;1.23;1.10;;;19.60;58.10;;;;;;9180821;19;20372;-65
2022/08/10 00:07:46;;;;;;;2.15;1.15;;;19.60;58.30;;;;;;9184518;19;20089;-65
2022/08/10 00:10:51;;;;;;;3.28;0.90;;;19.60;58.30;;;;;;9178018;19;20011;-65
2022/08/10 00:13:56;;;;;;;1.40;1.30;;;19.50;58.40;;;;;;9181785;19;20049;-64
2022/08/10 00:17:04;;;;;;;1.35;1.10;;;19.50;58.60;;;;;;9182659;19;20018;-66
2022/08/10 00:20:15;;;;;;;0.85;0.85;;;19.50;58.60;;;;;;9181717;19;20018;-63
2022/08/10 00:23:20;;;;;;;2.75;1.00;;;19.40;58.80;;;;;;9183025;19;20483;-63
2022/08/10 00:26:25;;;;;;;1.80;1.20;;;19.40;58.80;;;;;;9182762;19;20068;-66
2022/08/10 00:29:51;;;;;;;1.17;1.08;;;19.40;58.90;;;;;;9180792;19;20018;-65
2022/08/10 00:32:56;;;;;;;4.97;1.60;;;19.30;58.90;;;;;;9182434;19;20014;-65
2022/08/10 00:36:03;;;;;;;4.38;1.05;;;19.30;59.10;;;;;;9180923;19;20026;-66
2022/08/10 00:39:10;;;;;;;1.52;0.90;;;19.30;59.30;;;;;;9182980;19;20039;-65
2022/08/10 00:42:19;;;;;;;1.20;1.10;;;19.20;59.30;;;;;;9181461;19;20014;-65
2022/08/10 00:45:25;;;;;;;1.60;1.10;;;19.20;59.40;;;;;;9180005;19;20018;-67
2022/08/10 00:48:31;;;;;;;1.75;1.00;;;19.20;59.50;;;;;;9180274;19;20010;-65
2022/08/10 00:51:39;;;;;;;2.65;1.30;;;19.20;59.70;;;;;;9180747;19;20361;-65
2022/08/10 00:54:53;;;;;;;3.28;1.02;;;19.20;59.80;;;;;;9182091;19;20034;-64
2022/08/10 00:57:59;;;;;;;2.53;1.48;;;19.20;59.80;;;;;;9181960;19;20025;-65
2022/08/10 01:01:04;;;;;;;2.15;1.38;;;19.20;59.90;;;;;;9181838;19;20547;-67
2022/08/10 01:04:09;;;;;;;2.83;1.35;;;19.10;59.90;;;;;;9180302;19;20018;-63
2022/08/10 01:07:58;;;;;;;1.80;1.27;;;19.10;60.00;;;;;;9179536;19;20030;-66
2022/08/10 01:11:09;;;;;;;3.38;1.33;;;19.10;60.50;;;;;;9177911;19;20095;-65
2022/08/10 01:14:39;;;;;;;2.63;1.60;;;19.10;60.30;;;;;;9181522;19;20046;-63
2022/08/10 01:17:54;;;;;;;2.88;1.50;;;19.00;60.30;;;;;;9180600;19;20018;-63
2022/08/10 01:21:31;;;;;;;6.82;1.77;;;19.00;60.60;;;;;;9179110;19;20014;-63
2022/08/10 01:25:10;;;;;;;3.22;1.90;;;19.00;60.80;;;;;;9177783;19;20029;-66
2022/08/10 01:28:27;;;;;;;3.63;1.77;;;19.00;61.10;;;;;;9177911;19;20532;-65
2022/08/10 01:31:41;;;;;;;2.75;1.75;;;18.90;60.90;;;;;;9179069;19;20041;-65
2022/08/10 01:34:53;;;;;;;2.25;1.80;;;18.90;61.00;;;;;;9178606;19;20003;-65
2022/08/10 01:38:05;;;;;;;3.63;1.90;;;18.90;61.10;;;;;;9180025;19;20018;-66
2022/08/10 01:41:13;;;;;;;4.32;2.22;;;18.90;61.10;;;;;;9178892;19;20014;-67
2022/08/10 01:44:25;;;;;;;3.13;2.10;;;18.80;61.20;;;;;;9180050;19;20014;-64
2022/08/10 01:51:02;;;;;;;3.70;2.78;;;18.80;62.20;;;;;;9179347;19;20014;-67
2022/08/10 01:54:09;;;;;;;4.30;2.45;;;18.80;61.50;;;;;;9177993;19;20387;-65
2022/08/10 01:57:19;;;;;;;5.18;2.65;;;18.80;61.60;;;;;;9177996;19;20368;-66
2022/08/10 02:00:26;;;;;;;4.18;2.65;;;18.80;61.70;;;;;;9180158;19;20484;-66
2022/08/10 02:03:38;;;;;;;7.00;2.95;;;18.80;61.80;;;;;;9177107;19;20014;-65
2022/08/10 02:07:05;;;;;;;5.53;3.25;;;18.70;62.10;;;;;;9177101;19;20848;-66
2022/08/10 02:10:18;;;;;;;4.13;3.17;;;18.70;62.00;;;;;;9172841;19;20029;-65
2022/08/10 02:13:24;;;;;;;10.13;3.75;;;18.70;62.80;;;;;;9183788;19;20017;-66
2022/08/10 02:16:31;;;;;;;5.32;3.75;;;18.70;62.20;;;;;;9185910;19;20099;-68
2022/08/10 02:19:42;;;;;;;6.22;3.92;;;18.60;62.30;;;;;;9187872;19;20014;-66
2022/08/10 02:22:51;;;;;;;5.82;3.60;;;18.60;62.50;;;;;;9187663;19;20017;-66
2022/08/10 02:26:01;;;;;;;9.32;3.55;;;18.60;62.50;;;;;;9185029;19;20025;-66
2022/08/10 02:29:08;;;;;;;6.03;3.72;;;18.60;62.60;;;;;;9186473;19;20094;-65
2022/08/10 02:32:15;;;;;;;8.73;4.07;;;18.60;62.70;;;;;;9186188;19;20015;-65
2022/08/10 02:35:45;;;;;;;7.55;3.97;;;18.50;62.80;;;;;;9185795;19;20384;-67
2022/08/10 02:39:02;;;;;;;5.97;3.88;;;18.50;63.00;;;;;;9187746;19;20497;-66
2022/08/10 02:42:14;;;;;;;7.50;4.05;;;18.50;62.90;;;;;;9185958;19;20545;-66
2022/08/10 02:45:45;;;;;;;5.63;3.88;;;18.50;63.20;;;;;;9183522;19;20023;-66
2022/08/10 02:48:55;;;;;;;6.75;4.25;;;18.40;63.20;;;;;;9185515;19;20050;-68
2022/08/10 02:52:09;;;;;;;5.72;3.97;;;18.40;63.20;;;;;;9187156;19;20015;-66
2022/08/10 02:55:23;;;;;;;6.90;4.60;;;18.40;63.40;;;;;;9185301;19;20019;-67
2022/08/10 02:58:36;;;;;;;8.68;4.72;;;18.40;63.50;;;;;;9184609;19;20038;-65
2022/08/10 03:01:45;;;;;;;6.40;4.70;;;18.30;63.50;;;;;;9186280;19;20483;-67
2022/08/10 03:04:54;;;;;;;9.50;5.10;;;18.30;63.60;;;;;;9184435;19;20027;-65
2022/08/10 03:08:08;;;;;;;8.10;5.43;;;18.30;63.70;;;;;;9186323;19;20014;-66
2022/08/10 03:11:19;;;;;;;6.78;5.32;;;18.30;63.90;;;;;;9181593;19;20014;-67
2022/08/10 03:14:52;;;;;;;8.10;5.45;;;18.30;63.90;;;;;;9184473;19;20022;-66
2022/08/10 03:17:59;;;;;;;6.93;4.93;;;18.30;64.00;;;;;;9183888;19;20074;-66
2022/08/10 03:21:06;;;;;;;7.65;5.13;;;18.20;64.00;;;;;;9182245;19;20020;-66
2022/08/10 03:24:21;;;;;;;8.05;5.45;;;18.20;64.10;;;;;;9181593;19;20010;-64
2022/08/10 03:27:37;;;;;;;7.45;5.72;;;18.20;64.30;;;;;;9183997;19;20017;-66
2022/08/10 03:30:43;;;;;;;8.57;5.20;;;18.20;64.20;;;;;;9185319;19;20010;-67
2022/08/10 03:33:50;;;;;;;11.52;5.82;;;18.20;64.30;;;;;;9183673;19;20447;-65
2022/08/10 03:36:55;;;;;;;11.43;6.32;;;18.20;64.50;;;;;;9183571;19;20017;-66
2022/08/10 03:40:03;;;;;;;10.50;5.85;;;18.10;64.50;;;;;;9185624;19;20084;-66
2022/08/10 03:43:10;;;;;;;11.60;5.43;;;18.10;64.70;;;;;;9185472;19;20014;-64
2022/08/10 03:46:18;;;;;;;8.82;5.65;;;18.00;64.70;;;;;;9181421;19;20049;-66
2022/08/10 03:49:24;;;;;;;8.85;5.72;;;18.00;64.80;;;;;;9185098;19;20010;-66
2022/08/10 03:52:30;;;;;;;9.32;6.10;;;18.10;65.60;;;;;;9182657;19;20116;-66
2022/08/10 03:55:38;;;;;;;8.23;5.82;;;18.00;64.90;;;;;;9183565;19;20043;-64
2022/08/10 03:59:06;;;;;;;7.93;5.63;;;18.00;65.20;;;;;;9181959;19;20025;-66
2022/08/10 04:02:13;;;;;;;8.85;6.03;;;18.00;65.10;;;;;;9184297;19;20018;-66
2022/08/10 04:05:39;;;;;;;8.07;6.55;;;17.90;65.20;;;;;;9180633;19;20014;-67
2022/08/10 04:08:45;;;;;;;8.63;5.95;;;17.90;65.20;;;;;;9182331;19;20035;-67
2022/08/10 04:11:53;;;;;;;9.73;5.97;;;17.90;65.30;;;;;;9178467;19;20086;-66
2022/08/10 04:14:57;;;;;;;11.73;7.00;;;17.90;65.50;;;;;;9182605;19;20026;-65
2022/08/10 04:18:03;;;;;;;8.57;6.07;;;17.80;65.40;;;;;;9179857;19;20500;-67
2022/08/10 04:21:13;;;;;;;8.45;6.05;;;17.80;65.50;;;;;;9182808;19;20021;-69
2022/08/10 04:24:24;;;;;;;10.40;6.60;;;17.80;65.60;;;;;;9181293;19;20010;-64
2022/08/10 04:27:39;;;;;;;11.13;6.40;;;17.80;65.70;;;;;;9179190;19;20014;-66
2022/08/10 04:30:49;;;;;;;7.60;5.97;;;17.80;65.80;;;;;;9182196;19;20026;-66
2022/08/10 04:33:55;;;;;;;11.07;7.43;;;17.70;65.80;;;;;;9182977;19;20010;-64
2022/08/10 04:37:07;;;;;;;10.38;6.75;;;17.70;65.90;;;;;;9181515;19;20011;-63
2022/08/10 04:40:15;;;;;;;13.23;7.00;;;17.70;66.00;;;;;;9180636;19;20528;-65
2022/08/10 04:43:37;;;;;;;10.60;6.53;;;17.70;66.10;;;;;;9181359;19;20507;-65
2022/08/10 04:46:49;;;;;;;14.30;7.35;;;17.70;66.20;;;;;;9179327;19;20017;-66
2022/08/10 04:50:08;;;;;;;16.70;7.07;;;17.60;66.10;;;;;;9180237;19;20010;-64
2022/08/10 04:53:14;;;;;;;12.93;6.70;;;17.60;66.30;;;;;;9181438;19;20025;-67
2022/08/10 04:56:19;;;;;;;11.82;6.63;;;17.60;66.30;;;;;;9180378;19;20022;-66
2022/08/10 04:59:39;;;;;;;11.85;6.72;;;17.60;66.40;;;;;;9182210;19;20015;-65
2022/08/10 05:02:45;;;;;;;9.60;6.30;;;17.60;66.50;;;;;;9179595;19;20018;-66
2022/08/10 05:05:50;;;;;;;9.23;6.38;;;17.50;66.50;;;;;;9179666;19;20755;-64
2022/08/10 05:08:58;;;;;;;9.88;6.18;;;17.50;66.50;;;;;;9180037;19;20082;-65
2022/08/10 05:12:03;;;;;;;9.05;6.68;;;17.50;66.60;;;;;;9175052;19;20017;-64
2022/08/10 05:15:13;;;;;;;8.57;5.88;;;17.50;66.70;;;;;;9178708;19;20056;-63
2022/08/10 05:18:20;;;;;;;10.35;6.68;;;17.50;66.90;;;;;;9181405;19;20010;-64
2022/08/10 05:21:26;;;;;;;14.07;5.75;;;17.50;66.80;;;;;;9180901;19;20155;-67
2022/08/10 05:24:51;;;;;;;15.27;6.30;;;17.50;66.90;;;;;;9181941;19;20078;-65
2022/08/10 05:27:56;;;;;;;11.63;6.00;;;17.50;67.00;;;;;;9178385;19;20018;-65
2022/08/10 05:31:04;;;;;;;13.82;6.55;;;17.50;67.10;;;;;;9180324;19;20587;-64
2022/08/10 05:34:10;;;;;;;15.75;7.10;;;17.50;67.30;;;;;;9181126;19;20022;-64
2022/08/10 05:37:28;;;;;;;13.30;6.90;;;17.50;67.40;;;;;;9179883;19;20042;-65
2022/08/10 05:40:54;;;;;;;11.68;6.78;;;17.50;67.40;;;;;;9178600;19;20011;-66
2022/08/10 05:44:01;;;;;;;10.40;6.18;;;17.50;67.50;;;;;;9180326;19;20022;-67
2022/08/10 05:47:09;;;;;;;12.68;6.55;;;17.50;67.70;;;;;;9178995;19;20671;-66
2022/08/10 05:50:18;;;;;;;9.30;6.22;;;17.50;67.90;;;;;;9189563;19;20025;-67
2022/08/10 05:53:26;;;;;;;10.35;6.68;;;17.50;67.80;;;;;;9188427;19;20044;-66
2022/08/10 05:56:51;;;;;;;8.27;6.35;;;17.60;68.10;;;;;;9189692;19;20361;-66
2022/08/10 06:00:07;;;;;;;13.45;6.55;;;17.60;68.00;;;;;;9185972;19;20098;-65
2022/08/10 06:03:39;;;;;;;12.85;6.82;;;17.70;68.20;;;;;;9188929;19;20033;-63
2022/08/10 06:06:47;;;;;;;11.60;7.72;;;17.80;68.40;;;;;;9187910;19;20478;-63
2022/08/10 06:09:53;;;;;;;10.25;7.47;;;17.80;68.30;;;;;;9182785;19;20014;-62
2022/08/10 06:16:34;;;;;;;15.82;7.43;;;18.10;68.50;;;;;;9188736;19;20483;-63
2022/08/10 06:19:43;;;;;;;17.40;7.00;;;18.20;68.50;;;;;;9182559;19;20015;-63
2022/08/10 06:22:48;;;;;;;11.05;6.88;;;18.40;68.60;;;;;;9181384;19;20021;-63
2022/08/10 06:25:54;;;;;;;12.02;6.75;;;18.50;68.40;;;;;;9183170;19;20479;-63
2022/08/10 06:29:20;;;;;;;10.23;6.13;;;18.60;68.40;;;;;;9177092;19;20018;-63
2022/08/10 06:32:27;;;;;;;11.55;7.25;;;18.80;68.40;;;;;;9175009;19;20026;-62
2022/08/10 06:35:37;;;;;;;13.40;5.28;;;19.00;68.30;;;;;;9176597;19;20022;-63
2022/08/10 06:38:45;;;;;;;8.73;5.30;;;19.10;68.20;;;;;;9182851;19;20021;-62
2022/08/10 06:41:55;;;;;;;8.90;5.65;;;19.30;68.10;;;;;;9183004;19;20025;-63
2022/08/10 06:45:29;;;;;;;11.65;5.20;;;19.50;68.00;;;;;;9180560;19;20011;-63
2022/08/10 06:48:37;;;;;;;6.00;4.35;;;19.60;67.80;;;;;;9174678;19;20035;-62
2022/08/10 06:51:48;;;;;;;6.95;4.80;;;19.80;67.70;;;;;;9179063;19;20515;-63
2022/08/10 06:55:02;;;;;;;10.98;5.15;;;20.00;67.80;;;;;;9175358;19;20014;-63
2022/08/10 06:58:14;;;;;;;10.93;5.38;;;20.10;67.50;;;;;;9175714;19;20058;-63
2022/08/10 07:01:25;;;;;;;7.00;4.70;;;20.30;67.40;;;;;;9177970;19;20014;-64
2022/08/10 07:04:37;;;;;;;7.95;4.50;;;20.50;67.30;;;;;;9178174;19;20052;-62
2022/08/10 07:07:47;;;;;;;10.55;4.63;;;20.70;67.20;;;;;;9176538;19;20015;-63
2022/08/10 07:10:54;;;;;;;13.95;5.57;;;20.90;67.00;;;;;;9174993;19;20356;-64
2022/08/10 07:14:04;;;;;;;9.52;4.75;;;21.10;66.80;;;;;;9180049;19;20021;-62
2022/08/10 07:17:24;;;;;;;7.60;4.55;;;21.30;66.60;;;;;;9181157;19;20026;-64
2022/08/10 07:20:30;;;;;;;5.65;3.80;;;21.50;66.50;;;;;;9180322;19;20029;-63
2022/08/10 07:23:41;;;;;;;10.20;4.15;;;21.70;66.30;;;;;;9179762;19;20022;-65
2022/08/10 07:27:06;;;;;;;8.27;4.22;;;21.90;66.10;;;;;;9177537;19;20027;-64
2022/08/10 07:30:12;;;;;;;7.18;3.80;;;22.10;65.80;;;;;;9175692;19;20014;-63
2022/08/10 07:33:20;;;;;;;8.15;4.03;;;22.30;65.60;;;;;;9178924;19;20029;-63
2022/08/10 07:36:28;;;;;;;5.75;3.72;;;22.50;65.20;;;;;;9183705;19;20086;-63
2022/08/10 07:39:39;;;;;;;8.40;3.97;;;22.60;65.00;;;;;;9185631;19;20022;-65
2022/08/10 07:43:07;;;;;;;7.28;3.50;;;22.90;64.80;;;;;;9184852;19;20098;-62
2022/08/10 07:46:15;;;;;;;7.50;4.20;;;23.00;64.50;;;;;;9184921;19;20026;-63
2022/08/10 07:49:25;;;;;;;18.88;4.00;;;23.20;64.40;;;;;;9181981;19;20006;-63
2022/08/10 07:52:36;;;;;;;7.15;3.88;;;23.40;64.10;;;;;;9182686;19;20010;-63
2022/08/10 07:55:47;;;;;;;4.50;3.67;;;23.60;63.90;;;;;;9183781;19;20014;-64
2022/08/10 07:59:16;;;;;;;7.03;3.38;;;23.70;63.70;;;;;;9182103;19;20022;-62
2022/08/10 08:02:27;;;;;;;6.00;3.63;;;24.00;63.50;;;;;;9181609;19;20014;-63
2022/08/10 08:05:35;;;;;;;9.17;3.80;;;24.20;63.20;;;;;;9182312;19;20014;-64
2022/08/10 08:09:02;;;;;;;4.05;2.70;;;24.40;62.90;;;;;;9179389;19;20038;-66
2022/08/10 08:12:12;;;;;;;5.65;3.30;;;24.60;62.70;;;;;;9179108;19;20023;-64
2022/08/10 08:15:22;;;;;;;7.00;2.65;;;24.80;62.30;;;;;;9183639;19;20097;-63
2022/08/10 08:18:48;;;;;;;5.15;3.22;;;25.00;62.10;;;;;;9182032;19;20018;-64
2022/08/10 08:22:14;;;;;;;7.53;3.10;;;25.20;61.80;;;;;;9181073;19;20015;-64
2022/08/10 08:25:39;;;;;;;6.47;2.90;;;25.30;61.50;;;;;;9183364;19;20340;-63
2022/08/10 08:28:48;;;;;;;3.80;2.30;;;25.50;61.30;;;;;;9179277;19;20009;-64
2022/08/10 08:31:55;;;;;;;5.65;3.03;;;25.60;61.00;;;;;;9182064;19;20011;-65
2022/08/10 08:35:09;;;;;;;2.78;2.08;;;25.80;60.80;;;;;;9181888;19;20014;-64
2022/08/10 08:38:16;;;;;;;4.57;2.53;;;26.00;60.60;;;;;;9182674;19;20014;-64
2022/08/10 08:42:01;;;;;;;5.22;2.65;;;26.10;60.20;;;;;;9179853;19;20045;-64
2022/08/10 08:45:20;;;;;;;2.58;1.95;;;26.30;59.70;;;;;;9182875;19;20048;-63
2022/08/10 08:48:54;;;;;;;5.57;2.00;;;26.50;59.50;;;;;;9179175;19;20038;-64
2022/08/10 08:52:12;;;;;;;5.10;2.10;;;26.70;59.10;;;;;;9180588;19;20026;-64
2022/08/10 08:55:33;;;;;;;2.60;1.73;;;26.90;59.10;;;;;;9179640;19;20086;-64
2022/08/10 08:59:17;;;;;;;12.02;1.88;;;27.00;58.80;;;;;;9178119;19;20014;-64
2022/08/10 09:02:37;;;;;;;4.10;1.75;;;27.20;58.40;;;;;;9179380;19;20015;-63
2022/08/10 09:05:52;;;;;;;11.80;2.10;;;27.40;58.20;;;;;;9180106;19;20411;-63
2022/08/10 09:09:34;;;;;;;2.17;1.50;;;27.60;58.10;;;;;;9175958;19;20018;-68
2022/08/10 09:12:53;;;;;;;3.40;1.67;;;27.70;57.50;;;;;;9180811;19;20077;-66
2022/08/10 09:16:10;;;;;;;5.22;1.63;;;28.00;57.40;;;;;;9181561;19;20583;-64
2022/08/10 09:19:30;;;;;;;3.05;1.50;;;28.10;57.30;;;;;;9178727;19;20041;-65
2022/08/10 09:22:48;;;;;;;5.70;1.85;;;28.30;56.80;;;;;;9176775;19;20025;-65
2022/08/10 09:25:56;;;;;;;3.05;1.70;;;28.50;56.70;;;;;;9178674;19;20018;-64
2022/08/10 09:29:04;;;;;;;1.40;1.27;;;28.60;56.60;;;;;;9179236;19;20017;-65
2022/08/10 09:32:25;;;;;;;4.78;1.63;;;28.70;56.20;;;;;;9181036;19;20011;-65
2022/08/10 09:36:02;;;;;;;4.00;1.38;;;28.80;55.90;;;;;;9179288;19;20021;-66
2022/08/10 09:39:34;;;;;;;2.28;1.20;;;29.00;55.60;;;;;;9180550;19;20469;-64
2022/08/10 09:43:08;;;;;;;7.82;2.50;;;29.10;55.50;;;;;;9178501;19;20022;-63
2022/08/10 09:46:43;;;;;;;4.00;1.50;;;29.20;55.30;;;;;;9178156;19;20117;-66
2022/08/10 09:50:02;;;;;;;4.68;1.60;;;29.30;55.00;;;;;;9175906;19;20353;-64
2022/08/10 09:53:22;;;;;;;2.05;1.30;;;29.50;54.80;;;;;;9178197;19;20019;-64
2022/08/10 09:56:36;;;;;;;11.40;1.23;;;29.60;54.30;;;;;;9175364;19;20017;-66
2022/08/10 10:00:06;;;;;;;8.68;1.55;;;29.70;54.10;;;;;;9178289;19;20101;-65
2022/08/10 10:03:18;;;;;;;6.88;1.50;;;29.90;54.00;;;;;;9180185;19;20463;-66
2022/08/10 10:06:41;;;;;;;1.88;1.20;;;30.10;53.60;;;;;;9177038;19;20041;-67
2022/08/10 10:09:55;;;;;;;5.65;0.93;;;30.20;53.20;;;;;;9171738;19;20011;-65
2022/08/10 10:13:07;;;;;;;7.38;1.52;;;30.30;53.00;;;;;;9179250;19;20047;-64
2022/08/10 10:16:27;;;;;;;4.30;1.20;;;30.40;52.80;;;;;;9178531;19;20024;-67
2022/08/10 10:19:49;;;;;;;2.13;1.10;;;30.60;52.30;;;;;;9177692;19;20019;-65
2022/08/10 10:23:00;;;;;;;8.75;1.35;;;30.70;52.10;;;;;;9178726;19;20377;-65
2022/08/10 10:26:20;;;;;;;3.70;1.17;;;30.80;51.90;;;;;;9177523;19;20033;-64
2022/08/10 10:29:39;;;;;;;2.05;1.17;;;30.90;51.30;;;;;;9175078;19;20018;-65
2022/08/10 10:33:14;;;;;;;3.58;1.50;;;31.00;51.20;;;;;;9181282;19;20010;-66
2022/08/10 10:36:20;;;;;;;4.50;1.33;;;31.10;51.00;;;;;;9185706;19;20126;-67
2022/08/10 10:39:28;;;;;;;2.60;1.00;;;31.20;51.70;;;;;;9187050;19;20018;-66
2022/08/10 10:42:45;;;;;;;7.68;1.20;;;31.30;50.90;;;;;;9185552;19;20010;-67
2022/08/10 10:46:04;;;;;;;4.50;1.10;;;31.40;50.40;;;;;;9184679;19;20380;-64
2022/08/10 10:49:22;;;;;;;2.13;1.20;;;31.50;50.20;;;;;;9183515;19;20014;-68
2022/08/10 10:52:38;;;;;;;1.42;1.17;;;31.60;49.80;;;;;;9184244;19;20023;-65
2022/08/10 10:55:50;;;;;;;1.73;1.10;;;31.70;49.80;;;;;;9184305;19;20021;-68
2022/08/10 10:59:26;;;;;;;2.65;1.35;;;31.80;49.50;;;;;;9185208;19;20498;-65
2022/08/10 11:03:08;;;;;;;2.08;0.80;;;31.90;49.20;;;;;;9185178;19;20019;-66
2022/08/10 11:06:24;;;;;;;7.78;1.63;;;31.90;48.70;;;;;;9181976;19;20010;-65
2022/08/10 11:09:51;;;;;;;3.27;1.20;;;32.00;48.60;;;;;;9178258;19;20014;-65
2022/08/10 11:13:33;;;;;;;1.58;0.90;;;32.10;48.70;;;;;;9185136;19;20019;-66
2022/08/10 11:17:10;;;;;;;2.80;1.23;;;32.10;48.10;;;;;;9183874;19;20031;-66
2022/08/10 11:20:27;;;;;;;1.63;0.90;;;32.20;48.00;;;;;;9186676;19;20038;-64
2022/08/10 11:23:40;;;;;;;4.95;0.82;;;32.30;47.80;;;;;;9184852;19;20015;-65
2022/08/10 11:26:51;;;;;;;6.20;0.85;;;32.40;47.60;;;;;;9184245;19;20475;-65
2022/08/10 11:30:03;;;;;;;2.28;0.73;;;32.50;47.40;;;;;;9181168;19;20625;-65
2022/08/10 11:33:18;;;;;;;1.75;0.80;;;32.50;46.90;;;;;;9184833;19;20486;-64
2022/08/10 11:36:46;;;;;;;2.03;1.17;;;32.60;46.60;;;;;;9182954;19;20062;-65
2022/08/10 11:39:54;;;;;;;;;;;32.60;46.50;;;;;;9184265;19;20690;-68
2022/08/10 11:43:11;;;;;;;1.15;0.90;;;32.70;47.20;;;;;;9184238;19;19922;-64
2022/08/10 11:46:23;;;;;;;2.75;0.98;;;32.70;46.70;;;;;;9180989;19;20052;-65
2022/08/10 11:49:41;;;;;;;4.95;1.08;;;32.80;46.70;;;;;;9179684;19;20078;-65
2022/08/10 11:52:54;;;;;;;3.72;1.38;;;32.80;46.20;;;;;;9183153;19;20014;-65
2022/08/10 11:56:00;;;;;;;;;;;32.80;45.90;;;;;;9184651;19;20010;-65
2022/08/10 12:02:46;;;;;;;5.32;1.20;;;32.80;46.30;;;;;;9181396;19;20471;-65
2022/08/10 12:05:57;;;;;;;2.13;0.80;;;32.80;46.00;;;;;;9182782;19;20112;-66
2022/08/10 12:09:03;;;;;;;1.60;0.90;;;32.80;45.60;;;;;;9183698;19;20376;-66
2022/08/10 12:12:32;;;;;;;2.50;0.85;;;32.80;45.40;;;;;;9182527;19;20369;-66
2022/08/10 12:15:47;;;;;;;4.05;1.02;;;32.90;45.20;;;;;;9182583;19;20010;-65
2022/08/10 12:18:58;;;;;;;3.65;0.77;;;32.90;44.90;;;;;;9181284;19;20037;-65
2022/08/10 12:22:09;;;;;;;1.30;0.70;;;32.90;44.50;;;;;;9183283;19;20018;-65
2022/08/10 12:25:19;;;;;;;0.77;0.70;;;32.90;44.20;;;;;;9183606;19;20011;-65
2022/08/10 12:28:51;;;;;;;1.88;1.00;;;33.00;44.20;;;;;;9180462;19;20015;-64
2022/08/10 12:32:03;;;;;;;2.28;1.00;;;33.00;44.10;;;;;;9180877;19;20013;-67
2022/08/10 12:35:19;;;;;;;5.25;1.05;;;33.00;44.00;;;;;;9182506;19;20033;-67
2022/08/10 12:38:41;;;;;;;1.45;0.70;;;33.10;43.90;;;;;;9182579;19;20029;-66
2022/08/10 12:41:54;;;;;;;1.65;0.90;;;33.10;43.90;;;;;;9180688;19;20495;-66
2022/08/10 12:45:05;;;;;;;1.77;0.90;;;33.10;43.90;;;;;;9181020;19;20025;-66
2022/08/10 12:48:18;;;;;;;2.63;0.70;;;33.20;43.90;;;;;;9181541;19;20035;-66
2022/08/10 12:51:27;;;;;;;2.00;0.93;;;33.20;43.70;;;;;;9178395;19;20010;-66
2022/08/10 12:54:37;;;;;;;1.42;0.70;;;33.20;43.60;;;;;;9181955;19;20033;-65
2022/08/10 12:57:43;;;;;;;3.58;1.20;;;33.20;43.40;;;;;;9180337;19;20007;-66
2022/08/10 13:00:52;;;;;;;3.80;1.25;;;33.20;43.40;;;;;;9181180;19;20014;-67
2022/08/10 13:04:19;;;;;;;3.08;1.00;;;33.20;43.30;;;;;;9181367;19;20372;-66
2022/08/10 13:07:32;;;;;;;4.85;0.80;;;33.20;43.20;;;;;;9179971;19;20022;-66
2022/08/10 13:11:04;;;;;;;2.55;1.00;;;33.20;43.10;;;;;;9175597;19;20018;-65
2022/08/10 13:14:34;;;;;;;3.30;1.08;;;33.20;42.90;;;;;;9181253;19;20019;-65
2022/08/10 13:17:41;;;;;;;1.08;0.90;;;33.10;42.80;;;;;;9179073;19;20531;-67
2022/08/10 13:20:56;;;;;;;0.95;0.80;;;33.20;42.80;;;;;;9181704;19;20014;-66
2022/08/10 13:24:06;;;;;;;0.90;0.63;;;33.20;42.70;;;;;;9180858;19;20010;-65
2022/08/10 13:27:18;;;;;;;3.15;1.10;;;33.20;42.40;;;;;;9180022;19;20011;-66
2022/08/10 13:30:47;;;;;;;1.40;1.02;;;33.20;42.30;;;;;;9179541;19;20011;-66
2022/08/10 13:33:58;;;;;;;0.77;0.70;;;33.20;42.20;;;;;;9180733;19;20077;-65
2022/08/10 13:37:26;;;;;;;1.05;0.77;;;33.20;42.00;;;;;;9178180;19;20048;-65
2022/08/10 13:40:34;;;;;;;2.65;0.82;;;33.20;41.90;;;;;;9178622;19;20026;-66
2022/08/10 13:43:53;;;;;;;4.93;1.42;;;33.20;41.70;;;;;;9178293;19;20021;-67
2022/08/10 13:47:01;;;;;;;5.13;1.00;;;33.10;41.30;;;;;;9178322;19;20018;-66
2022/08/10 13:50:12;;;;;;;2.92;1.08;;;33.10;41.50;;;;;;9179954;19;20010;-65
2022/08/10 13:53:19;;;;;;;3.75;1.00;;;33.00;41.20;;;;;;9180063;19;20010;-69
2022/08/10 13:56:26;;;;;;;1.45;1.00;;;32.90;41.10;;;;;;9178637;19;20375;-65
2022/08/10 13:59:35;;;;;;;5.60;0.90;;;32.90;41.20;;;;;;9177969;19;20010;-66
2022/08/10 14:03:04;;;;;;;3.33;1.05;;;32.80;41.10;;;;;;9179124;19;20015;-66
2022/08/10 14:06:14;;;;;;;7.35;0.77;;;32.80;41.20;;;;;;9175584;19;20007;-68
2022/08/10 14:09:28;;;;;;;0.83;0.80;;;32.80;41.10;;;;;;9179932;19;20026;-67
2022/08/10 14:12:34;;;;;;;4.30;0.80;;;32.70;41.00;;;;;;9188933;19;20018;-67
2022/08/10 14:15:46;;;;;;;5.15;0.80;;;32.70;41.00;;;;;;9186639;19;20483;-67
2022/08/10 14:18:56;;;;;;;4.28;0.95;;;32.60;40.80;;;;;;9187971;19;20025;-68
2022/08/10 14:22:03;;;;;;;2.42;0.95;;;32.60;40.80;;;;;;9188932;19;20011;-68
2022/08/10 14:25:10;;;;;;;1.48;0.70;;;32.50;40.70;;;;;;9187554;19;20380;-66
2022/08/10 14:28:22;;;;;;;1.10;0.73;;;32.50;40.70;;;;;;9188030;19;20029;-66
2022/08/10 14:31:33;;;;;;;1.60;0.80;;;32.40;40.70;;;;;;9184329;19;20070;-69
2022/08/10 14:34:43;;;;;;;1.85;0.90;;;32.30;40.50;;;;;;9187436;19;20104;-67
2022/08/10 14:38:14;;;;;;;6.35;1.42;;;32.20;40.50;;;;;;9185389;19;20039;-67
2022/08/10 14:41:25;;;;;;;3.58;0.90;;;32.20;41.20;;;;;;9185905;19;20019;-66
2022/08/10 14:44:55;;;;;;;3.47;0.88;;;32.20;40.60;;;;;;9187807;19;20018;-68
2022/08/10 14:48:09;;;;;;;7.38;0.88;;;32.20;40.60;;;;;;9185196;19;20094;-70
2022/08/10 14:51:21;;;;;;;1.13;0.75;;;32.20;40.20;;;;;;9183869;19;20037;-69
2022/08/10 14:54:29;;;;;;;0.68;0.50;;;32.20;40.20;;;;;;9183837;19;20023;-68
2022/08/10 14:57:34;;;;;;;1.77;1.00;;;32.10;40.00;;;;;;9187175;19;20018;-67
2022/08/10 15:01:00;;;;;;;3.22;1.00;;;32.10;40.00;;;;;;9184609;19;20485;-67
2022/08/10 15:04:12;;;;;;;3.10;0.93;;;32.00;39.90;;;;;;9185471;19;20010;-66
2022/08/10 15:07:22;;;;;;;2.75;2.30;;;32.00;39.90;;;;;;9184578;19;20022;-67
2022/08/10 15:10:28;;;;;;;3.63;0.93;;;32.00;39.90;;;;;;9179305;19;20018;-68
2022/08/10 15:13:34;;;;;;;1.58;0.85;;;32.00;40.00;;;;;;9183940;19;20010;-68
2022/08/10 15:16:39;;;;;;;2.90;1.20;;;32.00;40.00;;;;;;9185119;19;20129;-69
2022/08/10 15:19:50;;;;;;;3.47;1.23;;;32.00;40.10;;;;;;9183515;19;20022;-69
2022/08/10 15:23:16;;;;;;;1.20;0.82;;;31.90;39.90;;;;;;9183765;19;20045;-69
2022/08/10 15:26:37;;;;;;;4.85;1.00;;;31.90;40.10;;;;;;9183794;19;20014;-67
2022/08/10 15:29:56;;;;;;;3.35;1.05;;;31.80;39.90;;;;;;9184241;19;20018;-68
2022/08/10 15:40:26;;;;;;;3.20;0.85;;;31.70;39.90;;;;;;9183976;19;20369;-68
2022/08/10 15:43:59;;;;;;;2.20;1.10;;;31.60;40.00;;;;;;9182579;19;20360;-68
2022/08/10 15:47:07;;;;;;;1.45;0.77;;;31.60;40.10;;;;;;9183452;19;20018;-67
2022/08/10 15:50:18;;;;;;;1.00;0.68;;;31.50;40.00;;;;;;9183244;19;20025;-67
2022/08/10 15:53:34;;;;;;;5.13;1.00;;;31.50;40.10;;;;;;9185260;19;20020;-68
2022/08/10 15:57:02;;;;;;;1.70;1.00;;;31.40;40.10;;;;;;9182739;19;20040;-67
2022/08/10 16:00:18;;;;;;;1.48;0.82;;;31.40;40.10;;;;;;9183353;19;20161;-70
2022/08/10 16:03:27;;;;;;;4.70;3.63;;;31.30;40.10;;;;;;9183204;19;20018;-68
2022/08/10 16:06:37;;;;;;;9.27;1.58;;;31.30;40.20;;;;;;9180513;19;20022;-69
2022/08/10 16:09:50;;;;;;;1.75;0.90;;;31.20;40.10;;;;;;9177661;19;20042;-68
2022/08/10 16:13:18;;;;;;;4.95;0.90;;;31.10;40.00;;;;;;9182050;19;20488;-68
2022/08/10 16:16:51;;;;;;;5.25;1.20;;;31.00;40.10;;;;;;9181117;19;20022;-67
2022/08/10 16:19:59;;;;;;;5.32;1.08;;;30.90;40.20;;;;;;9183009;19;20082;-69
2022/08/10 16:23:07;;;;;;;3.55;0.80;;;30.90;40.20;;;;;;9184141;19;20035;-68
2022/08/10 16:26:25;;;;;;;1.75;0.88;;;30.80;40.20;;;;;;9180389;19;20024;-68
2022/08/10 16:29:38;;;;;;;2.95;1.00;;;30.80;40.20;;;;;;9179431;19;20108;-67
2022/08/10 16:33:01;;;;;;;1.33;1.00;;;30.70;40.20;;;;;;9176455;19;20011;-69
2022/08/10 16:36:15;;;;;;;3.83;1.02;;;30.70;40.30;;;;;;9174519;19;20018;-68
2022/08/10 16:39:22;;;;;;;2.10;0.90;;;30.60;40.20;;;;;;9176390;19;20035;-69
2022/08/10 16:42:51;;;;;;;23.40;10.82;;;30.60;40.30;;;;;;9181070;19;20031;-70
2022/08/10 16:45:58;;;;;;;55.67;38.55;;;30.50;40.30;;;;;;9179566;19;20010;-68
2022/08/10 16:49:04;;;;;;;2.60;1.83;;;30.50;40.40;;;;;;9176885;19;20060;-67
2022/08/10 16:52:15;;;;;;;5.57;1.20;;;30.40;40.30;;;;;;9178944;19;20044;-66
2022/08/10 16:55:23;;;;;;;4.97;1.02;;;30.30;40.30;;;;;;9177344;19;20515;-66
2022/08/10 16:59:01;;;;;;;6.20;0.93;;;30.30;40.30;;;;;;9172111;19;20378;-67
2022/08/10 17:02:08;;;;;;;3.67;0.80;;;30.20;40.30;;;;;;9177404;19;20074;-65
2022/08/10 17:05:20;;;;;;;6.57;0.82;;;30.20;40.40;;;;;;9178448;19;20082;-67
2022/08/10 17:08:47;;;;;;;5.00;1.17;;;30.10;40.40;;;;;;9180612;19;20337;-68